Station Historical Data
Daily Summary for April 27, 2017 Units:  Both    English   Metric
« Previous Day
Next Day »
Daily Weekly Monthly Yearly Custom
  High: Low: Average:
Temperature: 86.9 °F /  30.5 °C 54.7 °F /  12.6 °C 68.7 °F /  20.4 °C
Dew Point: 64.4 °F /  18 °C 46.9 °F /  8.3 °C 56.6 °F /  13.7 °C
Humidity: 90% 37% 69%
Wind Speed: 17.0mph /  27.4km/h - 3.7mph /  6km/h
Wind Gust: 28.0mph /  45.1km/h - -
Wind- - South
Pressure: 29.75 in /  1007.3 hPa 29.49 in /  998.5 hPa -
Precipitation: 0.13 in /  3.3 mm    
Historical Graphs
 
 
Tabular Data for April 27, 2017
Time Temperature Dew Point Pressure Wind Wind Speed Wind Gust Humidity Rainfall Rate (Hourly)
00:00 58.3 °F /  14.6 °C 53.8 °F /  12.1 °C 29.68in /  1005hPa Calm     85% 0.00in /  0mm
00:05 58.1 °F /  14.5 °C 53.9 °F /  12.2 °C 29.68in /  1005hPa Calm     86% 0.00in /  0mm
00:10 57.8 °F /  14.3 °C 53.3 °F /  11.8 °C 29.68in /  1005hPa Calm     85% 0.00in /  0mm
00:15 57.5 °F /  14.2 °C 53.3 °F /  11.8 °C 29.68in /  1005hPa Calm     86% 0.00in /  0mm
00:20 57.4 °F /  14.1 °C 53.6 °F /  12 °C 29.68in /  1005hPa Calm     87% 0.00in /  0mm
00:25 57.2 °F /  14 °C 53.4 °F /  11.9 °C 29.68in /  1005hPa Calm     87% 0.00in /  0mm
00:30 57.3 °F /  14.1 °C 53.5 °F /  11.9 °C 29.68in /  1005hPa Calm     87% 0.00in /  0mm
00:35 57.1 °F /  13.9 °C 53.3 °F /  11.8 °C 29.68in /  1005hPa Calm     87% 0.00in /  0mm
00:40 57.1 °F /  13.9 °C 53.6 °F /  12 °C 29.68in /  1005hPa Calm     88% 0.00in /  0mm
00:45 57.2 °F /  14 °C 53.4 °F /  11.9 °C 29.68in /  1005hPa Calm     87% 0.00in /  0mm
00:50 57.0 °F /  13.9 °C 53.2 °F /  11.8 °C 29.68in /  1005hPa Calm     87% 0.00in /  0mm
00:55 56.6 °F /  13.7 °C 52.8 °F /  11.6 °C 29.68in /  1005hPa Calm     87% 0.00in /  0mm
01:00 56.8 °F /  13.8 °C 53.3 °F /  11.8 °C 29.68in /  1005hPa Calm     88% 0.00in /  0mm
01:05 56.7 °F /  13.7 °C 53.2 °F /  11.8 °C 29.68in /  1005hPa Calm     88% 0.00in /  0mm
01:10 56.9 °F /  13.8 °C 53.4 °F /  11.9 °C 29.68in /  1005hPa Calm     88% 0.00in /  0mm
01:15 57.1 °F /  13.9 °C 53.6 °F /  12 °C 29.68in /  1005hPa Calm     88% 0.00in /  0mm
01:20 57.1 °F /  13.9 °C 53.6 °F /  12 °C 29.68in /  1005hPa Calm     88% 0.00in /  0mm
01:25 57.0 °F /  13.9 °C 53.5 °F /  11.9 °C 29.68in /  1005hPa Calm     88% 0.00in /  0mm
01:30 56.9 °F /  13.8 °C 53.4 °F /  11.9 °C 29.67in /  1004.6hPa Calm     88% 0.00in /  0mm
01:35 56.9 °F /  13.8 °C 53.4 °F /  11.9 °C 29.67in /  1004.6hPa Calm     88% 0.00in /  0mm
01:40 56.7 °F /  13.7 °C 53.2 °F /  11.8 °C 29.67in /  1004.6hPa Calm     88% 0.00in /  0mm
01:45 56.5 °F /  13.6 °C 53.3 °F /  11.8 °C 29.67in /  1004.6hPa Calm     89% 0.00in /  0mm
01:50 56.2 °F /  13.4 °C 53.0 °F /  11.7 °C 29.67in /  1004.6hPa Calm     89% 0.00in /  0mm
01:55 56.4 °F /  13.6 °C 53.2 °F /  11.8 °C 29.67in /  1004.6hPa Calm     89% 0.00in /  0mm
02:00 56.3 °F /  13.5 °C 53.1 °F /  11.7 °C 29.67in /  1004.6hPa Calm     89% 0.00in /  0mm
02:05 56.5 °F /  13.6 °C 53.6 °F /  12 °C 29.67in /  1004.6hPa Calm     90% 0.00in /  0mm
02:10 56.4 °F /  13.6 °C 53.2 °F /  11.8 °C 29.67in /  1004.6hPa Calm     89% 0.00in /  0mm
02:15 56.4 °F /  13.6 °C 53.5 °F /  11.9 °C 29.67in /  1004.6hPa Calm     90% 0.00in /  0mm
02:20 56.8 °F /  13.8 °C 53.9 °F /  12.2 °C 29.67in /  1004.6hPa Calm     90% 0.00in /  0mm
02:25 56.9 °F /  13.8 °C 54.0 °F /  12.2 °C 29.67in /  1004.6hPa Calm     90% 0.00in /  0mm
02:30 56.8 °F /  13.8 °C 53.9 °F /  12.2 °C 29.67in /  1004.6hPa Calm     90% 0.00in /  0mm
02:35 56.9 °F /  13.8 °C 54.0 °F /  12.2 °C 29.67in /  1004.6hPa Calm     90% 0.00in /  0mm
02:40 57.0 °F /  13.9 °C 54.1 °F /  12.3 °C 29.67in /  1004.6hPa Calm     90% 0.00in /  0mm
02:45 57.1 °F /  13.9 °C 54.2 °F /  12.3 °C 29.66in /  1004.3hPa Calm     90% 0.00in /  0mm
02:50 57.2 °F /  14 °C 54.0 °F /  12.2 °C 29.67in /  1004.6hPa Calm     89% 0.00in /  0mm
02:55 57.3 °F /  14.1 °C 54.1 °F /  12.3 °C 29.67in /  1004.6hPa Calm     89% 0.00in /  0mm
03:00 57.3 °F /  14.1 °C 54.1 °F /  12.3 °C 29.66in /  1004.3hPa Calm     89% 0.00in /  0mm
03:05 57.6 °F /  14.2 °C 54.1 °F /  12.3 °C 29.66in /  1004.3hPa Calm     88% 0.00in /  0mm
03:10 57.5 °F /  14.2 °C 54.0 °F /  12.2 °C 29.66in /  1004.3hPa Calm     88% 0.00in /  0mm
03:15 57.6 °F /  14.2 °C 54.1 °F /  12.3 °C 29.66in /  1004.3hPa Calm     88% 0.00in /  0mm
03:20 57.9 °F /  14.4 °C 54.1 °F /  12.3 °C 29.66in /  1004.3hPa Calm     87% 0.00in /  0mm
03:25 58.1 °F /  14.5 °C 54.2 °F /  12.3 °C 29.66in /  1004.3hPa Calm     87% 0.00in /  0mm
03:30 58.1 °F /  14.5 °C 53.9 °F /  12.2 °C 29.66in /  1004.3hPa Calm     86% 0.00in /  0mm
03:35 58.2 °F /  14.6 °C 54.0 °F /  12.2 °C 29.65in /  1003.9hPa Calm     86% 0.00in /  0mm
03:40 58.4 °F /  14.7 °C 53.9 °F /  12.2 °C 29.65in /  1003.9hPa Calm     85% 0.00in /  0mm
03:45 58.5 °F /  14.7 °C 54.0 °F /  12.2 °C 29.65in /  1003.9hPa Calm     85% 0.00in /  0mm
03:50 58.6 °F /  14.8 °C 54.1 °F /  12.3 °C 29.65in /  1003.9hPa Calm   1.0mph /  1.6km/h 85% 0.00in /  0mm
03:55 58.6 °F /  14.8 °C 54.1 °F /  12.3 °C 29.65in /  1003.9hPa Calm   2.0mph /  3.2km/h 85% 0.00in /  0mm
04:00 58.4 °F /  14.7 °C 53.9 °F /  12.2 °C 29.66in /  1004.3hPa SSE 1.0mph /  1.6km/h 2.0mph /  3.2km/h 85% 0.00in /  0mm
04:05 58.4 °F /  14.7 °C 53.9 °F /  12.2 °C 29.65in /  1003.9hPa Calm   2.0mph /  3.2km/h 85% 0.00in /  0mm
04:10 58.3 °F /  14.6 °C 53.8 °F /  12.1 °C 29.65in /  1003.9hPa Calm   2.0mph /  3.2km/h 85% 0.00in /  0mm
04:15 58.3 °F /  14.6 °C 53.8 °F /  12.1 °C 29.65in /  1003.9hPa Calm   2.0mph /  3.2km/h 85% 0.00in /  0mm
04:20 58.2 °F /  14.6 °C 53.7 °F /  12.1 °C 29.65in /  1003.9hPa Calm   1.0mph /  1.6km/h 85% 0.00in /  0mm
04:25 58.2 °F /  14.6 °C 53.7 °F /  12.1 °C 29.65in /  1003.9hPa Calm     85% 0.00in /  0mm
04:30 58.1 °F /  14.5 °C 53.6 °F /  12 °C 29.65in /  1003.9hPa Calm     85% 0.00in /  0mm
04:35 58.2 °F /  14.6 °C 53.7 °F /  12.1 °C 29.65in /  1003.9hPa Calm     85% 0.00in /  0mm
04:40 58.1 °F /  14.5 °C 53.6 °F /  12 °C 29.65in /  1003.9hPa Calm     85% 0.00in /  0mm
04:45 58.0 °F /  14.4 °C 53.5 °F /  11.9 °C 29.65in /  1003.9hPa Calm     85% 0.00in /  0mm
04:50 57.9 °F /  14.4 °C 53.4 °F /  11.9 °C 29.65in /  1003.9hPa Calm     85% 0.00in /  0mm
04:55 57.8 °F /  14.3 °C 53.6 °F /  12 °C 29.65in /  1003.9hPa Calm     86% 0.00in /  0mm
05:00 57.4 °F /  14.1 °C 53.2 °F /  11.8 °C 29.65in /  1003.9hPa Calm     86% 0.00in /  0mm
05:05 57.3 °F /  14.1 °C 53.1 °F /  11.7 °C 29.65in /  1003.9hPa Calm     86% 0.00in /  0mm
05:10 57.2 °F /  14 °C 53.0 °F /  11.7 °C 29.65in /  1003.9hPa Calm     86% 0.00in /  0mm
05:15 56.8 °F /  13.8 °C 52.7 °F /  11.5 °C 29.66in /  1004.3hPa Calm     86% 0.00in /  0mm
05:20 56.6 °F /  13.7 °C 52.8 °F /  11.6 °C 29.66in /  1004.3hPa Calm     87% 0.00in /  0mm
05:25 56.9 °F /  13.8 °C 53.1 °F /  11.7 °C 29.66in /  1004.3hPa Calm     87% 0.00in /  0mm
05:30 57.1 °F /  13.9 °C 53.3 °F /  11.8 °C 29.66in /  1004.3hPa Calm     87% 0.00in /  0mm
05:35 57.2 °F /  14 °C 53.4 °F /  11.9 °C 29.66in /  1004.3hPa Calm     87% 0.00in /  0mm
05:40 57.3 °F /  14.1 °C 53.5 °F /  11.9 °C 29.66in /  1004.3hPa Calm     87% 0.00in /  0mm
05:45 57.4 °F /  14.1 °C 53.6 °F /  12 °C 29.66in /  1004.3hPa Calm     87% 0.00in /  0mm
05:50 57.6 °F /  14.2 °C 53.8 °F /  12.1 °C 29.66in /  1004.3hPa Calm     87% 0.00in /  0mm
05:55 57.6 °F /  14.2 °C 53.4 °F /  11.9 °C 29.66in /  1004.3hPa Calm     86% 0.00in /  0mm
06:00 57.8 °F /  14.3 °C 53.6 °F /  12 °C 29.66in /  1004.3hPa Calm     86% 0.00in /  0mm
06:05 57.9 °F /  14.4 °C 53.7 °F /  12.1 °C 29.66in /  1004.3hPa Calm     86% 0.00in /  0mm
06:10 58.0 °F /  14.4 °C 53.8 °F /  12.1 °C 29.66in /  1004.3hPa Calm     86% 0.00in /  0mm
06:15 58.1 °F /  14.5 °C 53.9 °F /  12.2 °C 29.66in /  1004.3hPa Calm     86% 0.00in /  0mm
06:20 58.2 °F /  14.6 °C 53.7 °F /  12.1 °C 29.66in /  1004.3hPa Calm     85% 0.00in /  0mm
06:25 58.5 °F /  14.7 °C 54.0 °F /  12.2 °C 29.66in /  1004.3hPa Calm     85% 0.00in /  0mm
06:30 58.6 °F /  14.8 °C 54.1 °F /  12.3 °C 29.66in /  1004.3hPa Calm     85% 0.00in /  0mm
06:35 58.7 °F /  14.8 °C 54.2 °F /  12.3 °C 29.66in /  1004.3hPa Calm     85% 0.00in /  0mm
06:40 58.8 °F /  14.9 °C 54.3 °F /  12.4 °C 29.66in /  1004.3hPa Calm     85% 0.00in /  0mm
06:45 59.1 °F /  15.1 °C 54.3 °F /  12.4 °C 29.66in /  1004.3hPa Calm     84% 0.00in /  0mm
06:50 59.3 °F /  15.2 °C 54.8 °F /  12.7 °C 29.65in /  1003.9hPa Calm     85% 0.00in /  0mm
06:55 59.5 °F /  15.3 °C 54.7 °F /  12.6 °C 29.65in /  1003.9hPa Calm     84% 0.00in /  0mm
07:00 60.0 °F /  15.6 °C 55.2 °F /  12.9 °C 29.66in /  1004.3hPa Calm     84% 0.00in /  0mm
07:05 60.4 °F /  15.8 °C 55.2 °F /  12.9 °C 29.66in /  1004.3hPa Calm     83% 0.00in /  0mm
07:10 60.7 °F /  15.9 °C 55.5 °F /  13.1 °C 29.66in /  1004.3hPa Calm     83% 0.00in /  0mm
07:15 61.3 °F /  16.3 °C 55.8 °F /  13.2 °C 29.66in /  1004.3hPa Calm     82% 0.00in /  0mm
07:20 62.0 °F /  16.7 °C 56.1 °F /  13.4 °C 29.66in /  1004.3hPa Calm   5.0mph /  8km/h 81% 0.00in /  0mm
07:25 62.6 °F /  17 °C 56.3 °F /  13.5 °C 29.66in /  1004.3hPa SE 1.0mph /  1.6km/h 5.0mph /  8km/h 80% 0.00in /  0mm
07:30 63.2 °F /  17.3 °C 56.6 °F /  13.7 °C 29.66in /  1004.3hPa SE 1.0mph /  1.6km/h 4.0mph /  6.4km/h 79% 0.00in /  0mm
07:35 63.7 °F /  17.6 °C 57.1 °F /  13.9 °C 29.66in /  1004.3hPa SE 2.0mph /  3.2km/h 4.0mph /  6.4km/h 79% 0.00in /  0mm
07:40 64.0 °F /  17.8 °C 57.0 °F /  13.9 °C 29.66in /  1004.3hPa ESE 3.0mph /  4.8km/h 5.0mph /  8km/h 78% 0.00in /  0mm
07:45 64.5 °F /  18.1 °C 57.1 °F /  13.9 °C 29.66in /  1004.3hPa SE 2.0mph /  3.2km/h 5.0mph /  8km/h 77% 0.00in /  0mm
07:50 65.1 °F /  18.4 °C 57.3 °F /  14.1 °C 29.66in /  1004.3hPa SE 3.0mph /  4.8km/h 7.0mph /  11.3km/h 76% 0.00in /  0mm
07:55 65.5 °F /  18.6 °C 57.4 °F /  14.1 °C 29.67in /  1004.6hPa South 1.0mph /  1.6km/h 6.0mph /  9.7km/h 75% 0.00in /  0mm
08:00 66.1 °F /  18.9 °C 57.6 °F /  14.2 °C 29.67in /  1004.6hPa SSE 5.0mph /  8km/h 5.0mph /  8km/h 74% 0.00in /  0mm
08:05 66.4 °F /  19.1 °C 57.9 °F /  14.4 °C 29.67in /  1004.6hPa SSE 2.0mph /  3.2km/h 5.0mph /  8km/h 74% 0.00in /  0mm
08:10 66.9 °F /  19.4 °C 58.0 °F /  14.4 °C 29.67in /  1004.6hPa SSE 3.0mph /  4.8km/h 7.0mph /  11.3km/h 73% 0.00in /  0mm
08:15 67.3 °F /  19.6 °C 58.0 °F /  14.4 °C 29.67in /  1004.6hPa SSE 3.0mph /  4.8km/h 8.0mph /  12.9km/h 72% 0.00in /  0mm
08:20 67.4 °F /  19.7 °C 58.1 °F /  14.5 °C 29.67in /  1004.6hPa SSE 3.0mph /  4.8km/h 7.0mph /  11.3km/h 72% 0.00in /  0mm
08:25 67.7 °F /  19.8 °C 58.0 °F /  14.4 °C 29.67in /  1004.6hPa SSE 5.0mph /  8km/h 7.0mph /  11.3km/h 71% 0.00in /  0mm
08:30 68.2 °F /  20.1 °C 58.0 °F /  14.4 °C 29.67in /  1004.6hPa ESE 3.0mph /  4.8km/h 5.0mph /  8km/h 70% 0.00in /  0mm
08:35 68.8 °F /  20.4 °C 58.6 °F /  14.8 °C 29.66in /  1004.3hPa SE 2.0mph /  3.2km/h 5.0mph /  8km/h 70% 0.00in /  0mm
08:40 69.3 °F /  20.7 °C 58.7 °F /  14.8 °C 29.66in /  1004.3hPa SE 3.0mph /  4.8km/h 7.0mph /  11.3km/h 69% 0.00in /  0mm
08:45 70.1 °F /  21.2 °C 59.5 °F /  15.3 °C 29.66in /  1004.3hPa ESE 3.0mph /  4.8km/h 7.0mph /  11.3km/h 69% 0.00in /  0mm
08:50 70.3 °F /  21.3 °C 59.2 °F /  15.1 °C 29.66in /  1004.3hPa ESE 3.0mph /  4.8km/h 7.0mph /  11.3km/h 68% 0.00in /  0mm
08:55 70.6 °F /  21.4 °C 59.1 °F /  15.1 °C 29.66in /  1004.3hPa SE 3.0mph /  4.8km/h 7.0mph /  11.3km/h 67% 0.00in /  0mm
09:00 70.7 °F /  21.5 °C 59.2 °F /  15.1 °C 29.66in /  1004.3hPa SE 3.0mph /  4.8km/h 7.0mph /  11.3km/h 67% 0.00in /  0mm
09:05 71.1 °F /  21.7 °C 59.6 °F /  15.3 °C 29.66in /  1004.3hPa SE 3.0mph /  4.8km/h 7.0mph /  11.3km/h 67% 0.00in /  0mm
09:10 71.3 °F /  21.8 °C 59.4 °F /  15.2 °C 29.66in /  1004.3hPa ESE 4.0mph /  6.4km/h 7.0mph /  11.3km/h 66% 0.00in /  0mm
09:15 71.9 °F /  22.2 °C 59.9 °F /  15.5 °C 29.66in /  1004.3hPa East 2.0mph /  3.2km/h 6.0mph /  9.7km/h 66% 0.00in /  0mm
09:20 72.4 °F /  22.4 °C 60.0 °F /  15.6 °C 29.66in /  1004.3hPa Calm   6.0mph /  9.7km/h 65% 0.00in /  0mm
09:25 72.9 °F /  22.7 °C 60.0 °F /  15.6 °C 29.66in /  1004.3hPa East 1.0mph /  1.6km/h 5.0mph /  8km/h 64% 0.00in /  0mm
09:30 73.4 °F /  23 °C 60.5 °F /  15.8 °C 29.66in /  1004.3hPa ESE 2.0mph /  3.2km/h 3.0mph /  4.8km/h 64% 0.00in /  0mm
09:35 74.0 °F /  23.3 °C 61.0 °F /  16.1 °C 29.65in /  1003.9hPa SSE 4.0mph /  6.4km/h 4.0mph /  6.4km/h 64% 0.00in /  0mm
09:40 74.2 °F /  23.4 °C 60.3 °F /  15.7 °C 29.65in /  1003.9hPa SE 3.0mph /  4.8km/h 7.0mph /  11.3km/h 62% 0.00in /  0mm
09:45 74.8 °F /  23.8 °C 60.4 °F /  15.8 °C 29.65in /  1003.9hPa SE 3.0mph /  4.8km/h 7.0mph /  11.3km/h 61% 0.00in /  0mm
09:50 75.7 °F /  24.3 °C 61.3 °F /  16.3 °C 29.66in /  1004.3hPa SE 2.0mph /  3.2km/h 6.0mph /  9.7km/h 61% 0.00in /  0mm
09:55 76.6 °F /  24.8 °C 61.2 °F /  16.2 °C 29.65in /  1003.9hPa South 2.0mph /  3.2km/h 6.0mph /  9.7km/h 59% 0.00in /  0mm
10:00 77.2 °F /  25.1 °C 60.8 °F /  16 °C 29.66in /  1004.3hPa SSW 3.0mph /  4.8km/h 6.0mph /  9.7km/h 57% 0.00in /  0mm
10:05 76.7 °F /  24.8 °C 59.8 °F /  15.4 °C 29.66in /  1004.3hPa SSW 3.0mph /  4.8km/h 8.0mph /  12.9km/h 56% 0.00in /  0mm
10:10 76.5 °F /  24.7 °C 60.6 °F /  15.9 °C 29.66in /  1004.3hPa South 4.0mph /  6.4km/h 7.0mph /  11.3km/h 58% 0.00in /  0mm
10:15 76.4 °F /  24.7 °C 59.5 °F /  15.3 °C 29.66in /  1004.3hPa SW 4.0mph /  6.4km/h 7.0mph /  11.3km/h 56% 0.00in /  0mm
10:20 76.2 °F /  24.6 °C 59.4 °F /  15.2 °C 29.66in /  1004.3hPa SSW 3.0mph /  4.8km/h 9.0mph /  14.5km/h 56% 0.00in /  0mm
10:25 76.2 °F /  24.6 °C 60.3 °F /  15.7 °C 29.66in /  1004.3hPa SSW 3.0mph /  4.8km/h 8.0mph /  12.9km/h 58% 0.00in /  0mm
10:30 76.2 °F /  24.6 °C 59.4 °F /  15.2 °C 29.66in /  1004.3hPa SSW 5.0mph /  8km/h 9.0mph /  14.5km/h 56% 0.00in /  0mm
10:35 76.5 °F /  24.7 °C 60.1 °F /  15.6 °C 29.66in /  1004.3hPa SSE 3.0mph /  4.8km/h 8.0mph /  12.9km/h 57% 0.00in /  0mm
10:40 77.1 °F /  25.1 °C 60.7 °F /  15.9 °C 29.66in /  1004.3hPa SSW 4.0mph /  6.4km/h 8.0mph /  12.9km/h 57% 0.00in /  0mm
10:45 78.0 °F /  25.6 °C 60.5 °F /  15.8 °C 29.66in /  1004.3hPa SSW 5.0mph /  8km/h 8.0mph /  12.9km/h 55% 0.00in /  0mm
10:50 79.0 °F /  26.1 °C 61.5 °F /  16.4 °C 29.66in /  1004.3hPa SSW 5.0mph /  8km/h 10.0mph /  16.1km/h 55% 0.00in /  0mm
10:55 79.4 °F /  26.3 °C 61.8 °F /  16.6 °C 29.66in /  1004.3hPa SSW 4.0mph /  6.4km/h 11.0mph /  17.7km/h 55% 0.00in /  0mm
11:00 79.6 °F /  26.4 °C 61.5 °F /  16.4 °C 29.66in /  1004.3hPa SSW 4.0mph /  6.4km/h 11.0mph /  17.7km/h 54% 0.00in /  0mm
11:05 80.2 °F /  26.8 °C 61.0 °F /  16.1 °C 29.65in /  1003.9hPa SSW 4.0mph /  6.4km/h 8.0mph /  12.9km/h 52% 0.00in /  0mm
11:10 80.6 °F /  27 °C 61.3 °F /  16.3 °C 29.65in /  1003.9hPa South 5.0mph /  8km/h 10.0mph /  16.1km/h 52% 0.00in /  0mm
11:15 80.9 °F /  27.2 °C 61.6 °F /  16.4 °C 29.65in /  1003.9hPa SSW 6.0mph /  9.7km/h 8.0mph /  12.9km/h 52% 0.00in /  0mm
11:20 80.9 °F /  27.2 °C 60.5 °F /  15.8 °C 29.64in /  1003.6hPa SSW 7.0mph /  11.3km/h 9.0mph /  14.5km/h 50% 0.00in /  0mm
11:25 80.7 °F /  27.1 °C 60.3 °F /  15.7 °C 29.64in /  1003.6hPa South 4.0mph /  6.4km/h 9.0mph /  14.5km/h 50% 0.00in /  0mm
11:30 81.2 °F /  27.3 °C 61.4 °F /  16.3 °C 29.63in /  1003.3hPa SE 8.0mph /  12.9km/h 8.0mph /  12.9km/h 51% 0.00in /  0mm
11:35 81.9 °F /  27.7 °C 61.4 °F /  16.3 °C 29.64in /  1003.6hPa South 7.0mph /  11.3km/h 8.0mph /  12.9km/h 50% 0.00in /  0mm
11:40 82.0 °F /  27.8 °C 61.0 °F /  16.1 °C 29.63in /  1003.3hPa South 5.0mph /  8km/h 10.0mph /  16.1km/h 49% 0.00in /  0mm
11:45 82.1 °F /  27.8 °C 63.3 °F /  17.4 °C 29.63in /  1003.3hPa South 4.0mph /  6.4km/h 10.0mph /  16.1km/h 53% 0.00in /  0mm
11:50 82.1 °F /  27.8 °C 61.0 °F /  16.1 °C 29.64in /  1003.6hPa South 4.0mph /  6.4km/h 11.0mph /  17.7km/h 49% 0.00in /  0mm
11:55 82.3 °F /  27.9 °C 61.2 °F /  16.2 °C 29.63in /  1003.3hPa SSW 5.0mph /  8km/h 11.0mph /  17.7km/h 49% 0.00in /  0mm
12:00 82.8 °F /  28.2 °C 61.7 °F /  16.5 °C 29.63in /  1003.3hPa SSE 4.0mph /  6.4km/h 11.0mph /  17.7km/h 49% 0.00in /  0mm
12:05 83.2 °F /  28.4 °C 61.5 °F /  16.4 °C 29.63in /  1003.3hPa South 3.0mph /  4.8km/h 8.0mph /  12.9km/h 48% 0.00in /  0mm
12:10 83.5 °F /  28.6 °C 62.9 °F /  17.2 °C 29.62in /  1002.9hPa SSE 3.0mph /  4.8km/h 8.0mph /  12.9km/h 50% 0.00in /  0mm
12:15 83.2 °F /  28.4 °C 61.5 °F /  16.4 °C 29.62in /  1002.9hPa South 5.0mph /  8km/h 11.0mph /  17.7km/h 48% 0.00in /  0mm
12:20 83.5 °F /  28.6 °C 62.3 °F /  16.8 °C 29.61in /  1002.6hPa SSW 4.0mph /  6.4km/h 9.0mph /  14.5km/h 49% 0.00in /  0mm
12:25 84.1 °F /  28.9 °C 62.9 °F /  17.2 °C 29.61in /  1002.6hPa South 6.0mph /  9.7km/h 7.0mph /  11.3km/h 49% 0.00in /  0mm
12:30 83.5 °F /  28.6 °C 60.5 °F /  15.8 °C 29.61in /  1002.6hPa SSW 3.0mph /  4.8km/h 8.0mph /  12.9km/h 46% 0.00in /  0mm
12:35 83.9 °F /  28.8 °C 61.5 °F /  16.4 °C 29.60in /  1002.3hPa South 2.0mph /  3.2km/h 9.0mph /  14.5km/h 47% 0.00in /  0mm
12:40 84.4 °F /  29.1 °C 62.0 °F /  16.7 °C 29.60in /  1002.3hPa SSW 4.0mph /  6.4km/h 10.0mph /  16.1km/h 47% 0.00in /  0mm
12:45 84.8 °F /  29.3 °C 61.1 °F /  16.2 °C 29.60in /  1002.3hPa SSW 3.0mph /  4.8km/h 10.0mph /  16.1km/h 45% 0.00in /  0mm
12:50 84.3 °F /  29.1 °C 61.3 °F /  16.3 °C 29.60in /  1002.3hPa SSW 5.0mph /  8km/h 11.0mph /  17.7km/h 46% 0.00in /  0mm
12:55 83.9 °F /  28.8 °C 61.5 °F /  16.4 °C 29.59in /  1001.9hPa SSE 2.0mph /  3.2km/h 10.0mph /  16.1km/h 47% 0.00in /  0mm
13:00 83.6 °F /  28.7 °C 63.0 °F /  17.2 °C 29.59in /  1001.9hPa SSW 3.0mph /  4.8km/h 10.0mph /  16.1km/h 50% 0.00in /  0mm
13:05 83.8 °F /  28.8 °C 62.6 °F /  17 °C 29.58in /  1001.6hPa South 5.0mph /  8km/h 10.0mph /  16.1km/h 49% 0.00in /  0mm
13:10 84.0 °F /  28.9 °C 62.8 °F /  17.1 °C 29.58in /  1001.6hPa SSW 3.0mph /  4.8km/h 8.0mph /  12.9km/h 49% 0.00in /  0mm
13:15 84.1 °F /  28.9 °C 62.3 °F /  16.8 °C 29.58in /  1001.6hPa South 3.0mph /  4.8km/h 7.0mph /  11.3km/h 48% 0.00in /  0mm
13:20 85.3 °F /  29.6 °C 62.8 °F /  17.1 °C 29.58in /  1001.6hPa South 3.0mph /  4.8km/h 9.0mph /  14.5km/h 47% 0.00in /  0mm
13:25 85.2 °F /  29.6 °C 60.8 °F /  16 °C 29.58in /  1001.6hPa SE 4.0mph /  6.4km/h 11.0mph /  17.7km/h 44% 0.00in /  0mm
13:30 85.8 °F /  29.9 °C 62.0 °F /  16.7 °C 29.57in /  1001.2hPa South 4.0mph /  6.4km/h 7.0mph /  11.3km/h 45% 0.00in /  0mm
13:35 86.2 °F /  30.1 °C 61.1 °F /  16.2 °C 29.57in /  1001.2hPa SSE 5.0mph /  8km/h 14.0mph /  22.5km/h 43% 0.00in /  0mm
13:40 85.4 °F /  29.7 °C 60.4 °F /  15.8 °C 29.57in /  1001.2hPa South 1.0mph /  1.6km/h 13.0mph /  20.9km/h 43% 0.00in /  0mm
13:45 85.6 °F /  29.8 °C 61.8 °F /  16.6 °C 29.57in /  1001.2hPa SSW 6.0mph /  9.7km/h 10.0mph /  16.1km/h 45% 0.00in /  0mm
13:50 85.9 °F /  29.9 °C 60.1 °F /  15.6 °C 29.57in /  1001.2hPa SE 1.0mph /  1.6km/h 10.0mph /  16.1km/h 42% 0.00in /  0mm
13:55 85.6 °F /  29.8 °C 59.9 °F /  15.5 °C 29.56in /  1000.9hPa South 8.0mph /  12.9km/h 9.0mph /  14.5km/h 42% 0.00in /  0mm
14:00 85.2 °F /  29.6 °C 61.5 °F /  16.4 °C 29.56in /  1000.9hPa SE 5.0mph /  8km/h 12.0mph /  19.3km/h 45% 0.00in /  0mm
14:05 85.3 °F /  29.6 °C 60.9 °F /  16.1 °C 29.55in /  1000.6hPa SE 6.0mph /  9.7km/h 12.0mph /  19.3km/h 44% 0.00in /  0mm
14:10 86.4 °F /  30.2 °C 64.4 °F /  18 °C 29.55in /  1000.6hPa SE 5.0mph /  8km/h 11.0mph /  17.7km/h 48% 0.00in /  0mm
14:15 86.2 °F /  30.1 °C 61.7 °F /  16.5 °C 29.55in /  1000.6hPa SE 5.0mph /  8km/h 13.0mph /  20.9km/h 44% 0.00in /  0mm
14:20 85.4 °F /  29.7 °C 59.0 °F /  15 °C 29.54in /  1000.2hPa SE 6.0mph /  9.7km/h 13.0mph /  20.9km/h 41% 0.00in /  0mm
14:25 85.2 °F /  29.6 °C 60.2 °F /  15.7 °C 29.54in /  1000.2hPa SE 5.0mph /  8km/h 12.0mph /  19.3km/h 43% 0.00in /  0mm
14:30 85.8 °F /  29.9 °C 59.4 °F /  15.2 °C 29.54in /  1000.2hPa SSE 9.0mph /  14.5km/h 13.0mph /  20.9km/h 41% 0.00in /  0mm
14:35 85.5 °F /  29.7 °C 59.8 °F /  15.4 °C 29.54in /  1000.2hPa SSE 6.0mph /  9.7km/h 13.0mph /  20.9km/h 42% 0.00in /  0mm
14:40 85.5 °F /  29.7 °C 60.4 °F /  15.8 °C 29.54in /  1000.2hPa SSE 6.0mph /  9.7km/h 14.0mph /  22.5km/h 43% 0.00in /  0mm
14:45 86.1 °F /  30.1 °C 59.0 °F /  15 °C 29.54in /  1000.2hPa SSE 13.0mph /  20.9km/h 13.0mph /  20.9km/h 40% 0.00in /  0mm
14:50 85.3 °F /  29.6 °C 59.6 °F /  15.3 °C 29.54in /  1000.2hPa SE 8.0mph /  12.9km/h 13.0mph /  20.9km/h 42% 0.00in /  0mm
14:55 85.9 °F /  29.9 °C 56.6 °F /  13.7 °C 29.54in /  1000.2hPa SSW 4.0mph /  6.4km/h 14.0mph /  22.5km/h 37% 0.00in /  0mm
15:00 86.5 °F /  30.3 °C 59.3 °F /  15.2 °C 29.54in /  1000.2hPa SSE 7.0mph /  11.3km/h 13.0mph /  20.9km/h 40% 0.00in /  0mm
15:05 86.9 °F /  30.5 °C 59.0 °F /  15 °C 29.54in /  1000.2hPa South 6.0mph /  9.7km/h 14.0mph /  22.5km/h 39% 0.00in /  0mm
15:10 86.5 °F /  30.3 °C 60.0 °F /  15.6 °C 29.55in /  1000.6hPa SSE 8.0mph /  12.9km/h 12.0mph /  19.3km/h 41% 0.00in /  0mm
15:15 86.0 °F /  30 °C 58.9 °F /  14.9 °C 29.54in /  1000.2hPa SSW 7.0mph /  11.3km/h 14.0mph /  22.5km/h 40% 0.00in /  0mm
15:20 86.5 °F /  30.3 °C 57.1 °F /  13.9 °C 29.54in /  1000.2hPa SSW 4.0mph /  6.4km/h 11.0mph /  17.7km/h 37% 0.00in /  0mm
15:25 86.1 °F /  30.1 °C 57.5 °F /  14.2 °C 29.54in /  1000.2hPa SSW 5.0mph /  8km/h 10.0mph /  16.1km/h 38% 0.00in /  0mm
15:30 85.9 °F /  29.9 °C 58.8 °F /  14.9 °C 29.54in /  1000.2hPa South 5.0mph /  8km/h 16.0mph /  25.7km/h 40% 0.00in /  0mm
15:35 85.4 °F /  29.7 °C 59.7 °F /  15.4 °C 29.54in /  1000.2hPa South 4.0mph /  6.4km/h 16.0mph /  25.7km/h 42% 0.00in /  0mm
15:40 84.7 °F /  29.3 °C 57.7 °F /  14.3 °C 29.54in /  1000.2hPa South 5.0mph /  8km/h 11.0mph /  17.7km/h 40% 0.00in /  0mm
15:45 84.4 °F /  29.1 °C 57.4 °F /  14.1 °C 29.54in /  1000.2hPa South 6.0mph /  9.7km/h 11.0mph /  17.7km/h 40% 0.00in /  0mm
15:50 84.0 °F /  28.9 °C 57.1 °F /  13.9 °C 29.53in /  999.9hPa South 8.0mph /  12.9km/h 13.0mph /  20.9km/h 40% 0.00in /  0mm
15:55 84.2 °F /  29 °C 57.9 °F /  14.4 °C 29.53in /  999.9hPa SE 7.0mph /  11.3km/h 11.0mph /  17.7km/h 41% 0.00in /  0mm
16:00 84.1 °F /  28.9 °C 57.2 °F /  14 °C 29.52in /  999.5hPa South 7.0mph /  11.3km/h 11.0mph /  17.7km/h 40% 0.00in /  0mm
16:05 84.7 °F /  29.3 °C 58.4 °F /  14.7 °C 29.52in /  999.5hPa South 3.0mph /  4.8km/h 9.0mph /  14.5km/h 41% 0.00in /  0mm
16:10 84.4 °F /  29.1 °C 58.1 °F /  14.5 °C 29.52in /  999.5hPa SSW 9.0mph /  14.5km/h 12.0mph /  19.3km/h 41% 0.00in /  0mm
16:15 84.4 °F /  29.1 °C 58.1 °F /  14.5 °C 29.52in /  999.5hPa South 9.0mph /  14.5km/h 12.0mph /  19.3km/h 41% 0.00in /  0mm
16:20 84.3 °F /  29.1 °C 58.0 °F /  14.4 °C 29.52in /  999.5hPa South 4.0mph /  6.4km/h 8.0mph /  12.9km/h 41% 0.00in /  0mm
16:25 84.0 °F /  28.9 °C 59.1 °F /  15.1 °C 29.51in /  999.2hPa South 3.0mph /  4.8km/h 9.0mph /  14.5km/h 43% 0.00in /  0mm
16:30 84.3 °F /  29.1 °C 58.7 °F /  14.8 °C 29.51in /  999.2hPa SSW 4.0mph /  6.4km/h 10.0mph /  16.1km/h 42% 0.00in /  0mm
16:35 83.8 °F /  28.8 °C 58.3 °F /  14.6 °C 29.51in /  999.2hPa South 5.0mph /  8km/h 10.0mph /  16.1km/h 42% 0.00in /  0mm
16:40 83.9 °F /  28.8 °C 59.0 °F /  15 °C 29.50in /  998.9hPa South 5.0mph /  8km/h 10.0mph /  16.1km/h 43% 0.00in /  0mm
16:45 84.2 °F /  29 °C 59.3 °F /  15.2 °C 29.50in /  998.9hPa SSW 3.0mph /  4.8km/h 9.0mph /  14.5km/h 43% 0.00in /  0mm
16:50 84.1 °F /  28.9 °C 58.5 °F /  14.7 °C 29.51in /  999.2hPa SSE 4.0mph /  6.4km/h 11.0mph /  17.7km/h 42% 0.00in /  0mm
16:55 84.0 °F /  28.9 °C 58.4 °F /  14.7 °C 29.50in /  998.9hPa SSE 5.0mph /  8km/h 11.0mph /  17.7km/h 42% 0.00in /  0mm
17:00 84.5 °F /  29.2 °C 58.9 °F /  14.9 °C 29.50in /  998.9hPa South 5.0mph /  8km/h 10.0mph /  16.1km/h 42% 0.00in /  0mm
17:05 85.7 °F /  29.8 °C 59.3 °F /  15.2 °C 29.50in /  998.9hPa SSE 5.0mph /  8km/h 11.0mph /  17.7km/h 41% 0.00in /  0mm
17:10 85.6 °F /  29.8 °C 59.9 °F /  15.5 °C 29.50in /  998.9hPa SSE 5.0mph /  8km/h 11.0mph /  17.7km/h 42% 0.00in /  0mm
17:15 85.1 °F /  29.5 °C 58.8 °F /  14.9 °C 29.50in /  998.9hPa East 5.0mph /  8km/h 11.0mph /  17.7km/h 41% 0.00in /  0mm
17:20 85.1 °F /  29.5 °C 60.1 °F /  15.6 °C 29.49in /  998.5hPa South 4.0mph /  6.4km/h 11.0mph /  17.7km/h 43% 0.00in /  0mm
17:25 84.9 °F /  29.4 °C 58.6 °F /  14.8 °C 29.49in /  998.5hPa SSE 6.0mph /  9.7km/h 12.0mph /  19.3km/h 41% 0.00in /  0mm
17:30 84.9 °F /  29.4 °C 59.9 °F /  15.5 °C 29.49in /  998.5hPa SSW 4.0mph /  6.4km/h 11.0mph /  17.7km/h 43% 0.00in /  0mm
17:35 84.9 °F /  29.4 °C 59.2 °F /  15.1 °C 29.49in /  998.5hPa SW 3.0mph /  4.8km/h 10.0mph /  16.1km/h 42% 0.00in /  0mm
17:40 84.6 °F /  29.2 °C 59.6 °F /  15.3 °C 29.49in /  998.5hPa South 4.0mph /  6.4km/h 7.0mph /  11.3km/h 43% 0.00in /  0mm
17:45 84.5 °F /  29.2 °C 59.5 °F /  15.3 °C 29.49in /  998.5hPa South 3.0mph /  4.8km/h 9.0mph /  14.5km/h 43% 0.00in /  0mm
17:50 84.6 °F /  29.2 °C 59.6 °F /  15.3 °C 29.49in /  998.5hPa SSW 3.0mph /  4.8km/h 9.0mph /  14.5km/h 43% 0.00in /  0mm
17:55 84.5 °F /  29.2 °C 58.9 °F /  14.9 °C 29.49in /  998.5hPa SSW 3.0mph /  4.8km/h 9.0mph /  14.5km/h 42% 0.00in /  0mm
18:00 83.9 °F /  28.8 °C 60.9 °F /  16.1 °C 29.49in /  998.5hPa SSW 4.0mph /  6.4km/h 8.0mph /  12.9km/h 46% 0.00in /  0mm
18:05 83.4 °F /  28.6 °C 58.6 °F /  14.8 °C 29.49in /  998.5hPa SSW 4.0mph /  6.4km/h 7.0mph /  11.3km/h 43% 0.00in /  0mm
18:10 83.0 °F /  28.3 °C 59.5 °F /  15.3 °C 29.49in /  998.5hPa SW 4.0mph /  6.4km/h 7.0mph /  11.3km/h 45% 0.00in /  0mm
18:15 82.5 °F /  28.1 °C 59.0 °F /  15 °C 29.49in /  998.5hPa SW 4.0mph /  6.4km/h 6.0mph /  9.7km/h 45% 0.00in /  0mm
18:20 80.9 °F /  27.2 °C 58.2 °F /  14.6 °C 29.52in /  999.5hPa WNW 7.0mph /  11.3km/h 26.0mph /  41.8km/h 46% 0.00in /  0mm
18:25 75.4 °F /  24.1 °C 57.6 °F /  14.2 °C 29.53in /  999.9hPa WSW 11.0mph /  17.7km/h 26.0mph /  41.8km/h 54% 0.00in /  0mm
18:30 73.1 °F /  22.8 °C 57.9 °F /  14.4 °C 29.53in /  999.9hPa WNW 8.0mph /  12.9km/h 23.0mph /  37km/h 59% 0.00in /  0mm
18:35 72.2 °F /  22.3 °C 58.0 °F /  14.4 °C 29.56in /  1000.9hPa WSW 9.0mph /  14.5km/h 18.0mph /  29km/h 61% 0.00in /  0mm
18:40 71.7 °F /  22.1 °C 58.4 °F /  14.7 °C 29.56in /  1000.9hPa SW 14.0mph /  22.5km/h 18.0mph /  29km/h 63% 0.00in /  0mm
18:45 71.4 °F /  21.9 °C 58.6 °F /  14.8 °C 29.57in /  1001.2hPa WNW 9.0mph /  14.5km/h 22.0mph /  35.4km/h 64% 0.00in /  0mm
18:50 71.2 °F /  21.8 °C 58.8 °F /  14.9 °C 29.58in /  1001.6hPa WNW 12.0mph /  19.3km/h 22.0mph /  35.4km/h 65% 0.00in /  0mm
18:55 71.1 °F /  21.7 °C 58.7 °F /  14.8 °C 29.58in /  1001.6hPa WSW 10.0mph /  16.1km/h 22.0mph /  35.4km/h 65% 0.00in /  0mm
19:00 70.8 °F /  21.6 °C 58.9 °F /  14.9 °C 29.58in /  1001.6hPa WSW 9.0mph /  14.5km/h 17.0mph /  27.4km/h 66% 0.00in /  0mm
19:05 70.4 °F /  21.3 °C 58.9 °F /  14.9 °C 29.60in /  1002.3hPa WSW 7.0mph /  11.3km/h 14.0mph /  22.5km/h 67% 0.00in /  0mm
19:10 69.9 °F /  21.1 °C 58.9 °F /  14.9 °C 29.61in /  1002.6hPa SW 6.0mph /  9.7km/h 14.0mph /  22.5km/h 68% 0.00in /  0mm
19:15 69.4 °F /  20.8 °C 58.8 °F /  14.9 °C 29.60in /  1002.3hPa SW 7.0mph /  11.3km/h 14.0mph /  22.5km/h 69% 0.00in /  0mm
19:20 69.0 °F /  20.6 °C 58.4 °F /  14.7 °C 29.61in /  1002.6hPa South 8.0mph /  12.9km/h 15.0mph /  24.1km/h 69% 0.00in /  0mm
19:25 66.2 °F /  19 °C 55.3 °F /  12.9 °C 29.61in /  1002.6hPa SW 8.0mph /  12.9km/h 15.0mph /  24.1km/h 68% 0.00in /  0mm
19:30 63.2 °F /  17.3 °C 54.8 °F /  12.7 °C 29.62in /  1002.9hPa SSW 5.0mph /  8km/h 13.0mph /  20.9km/h 74% 0.00in /  0mm
19:35 61.9 °F /  16.6 °C 54.6 °F /  12.6 °C 29.63in /  1003.3hPa SSW 7.0mph /  11.3km/h 14.0mph /  22.5km/h 77% 0.00in /  0mm
19:40 61.4 °F /  16.3 °C 54.8 °F /  12.7 °C 29.63in /  1003.3hPa SSW 5.0mph /  8km/h 10.0mph /  16.1km/h 79% 0.00in /  0mm
19:45 61.2 °F /  16.2 °C 55.0 °F /  12.8 °C 29.64in /  1003.6hPa SW 4.0mph /  6.4km/h 11.0mph /  17.7km/h 80% 0.00in /  0mm
19:50 61.2 °F /  16.2 °C 55.3 °F /  12.9 °C 29.64in /  1003.6hPa SW 6.0mph /  9.7km/h 8.0mph /  12.9km/h 81% 0.00in /  0mm
19:55 61.2 °F /  16.2 °C 55.3 °F /  12.9 °C 29.65in /  1003.9hPa SW 6.0mph /  9.7km/h 13.0mph /  20.9km/h 81% 0.00in /  0mm
20:00 61.1 °F /  16.2 °C 55.2 °F /  12.9 °C 29.64in /  1003.6hPa SW 7.0mph /  11.3km/h 14.0mph /  22.5km/h 81% 0.00in /  0mm
20:05 60.9 °F /  16.1 °C 55.0 °F /  12.8 °C 29.64in /  1003.6hPa SW 11.0mph /  17.7km/h 14.0mph /  22.5km/h 81% 0.00in /  0mm
20:10 60.8 °F /  16 °C 55.3 °F /  12.9 °C 29.65in /  1003.9hPa SW 4.0mph /  6.4km/h 11.0mph /  17.7km/h 82% 0.00in /  0mm
20:15 60.8 °F /  16 °C 55.3 °F /  12.9 °C 29.68in /  1005hPa SW 8.0mph /  12.9km/h 12.0mph /  19.3km/h 82% 0.00in /  0mm
20:20 60.8 °F /  16 °C 54.9 °F /  12.7 °C 29.67in /  1004.6hPa SW 4.0mph /  6.4km/h 15.0mph /  24.1km/h 81% 0.00in /  0mm
20:25 60.7 °F /  15.9 °C 54.8 °F /  12.7 °C 29.66in /  1004.3hPa SW 8.0mph /  12.9km/h 15.0mph /  24.1km/h 81% 0.00in /  0mm
20:30 60.3 °F /  15.7 °C 55.1 °F /  12.8 °C 29.65in /  1003.9hPa WSW 6.0mph /  9.7km/h 15.0mph /  24.1km/h 83% 0.00in /  0mm
20:35 59.9 °F /  15.5 °C 55.1 °F /  12.8 °C 29.66in /  1004.3hPa WSW 5.0mph /  8km/h 11.0mph /  17.7km/h 84% 0.01in /  0.25mm
20:40 59.7 °F /  15.4 °C 55.2 °F /  12.9 °C 29.67in /  1004.6hPa SW 4.0mph /  6.4km/h 11.0mph /  17.7km/h 85% 0.03in /  0.76mm
20:45 59.7 °F /  15.4 °C 55.5 °F /  13.1 °C 29.68in /  1005hPa South 7.0mph /  11.3km/h 11.0mph /  17.7km/h 86% 0.04in /  1.02mm
20:50 59.6 °F /  15.3 °C 55.4 °F /  13 °C 29.68in /  1005hPa SW 2.0mph /  3.2km/h 12.0mph /  19.3km/h 86% 0.04in /  1.02mm
20:55 59.4 °F /  15.2 °C 55.2 °F /  12.9 °C 29.68in /  1005hPa WSW 6.0mph /  9.7km/h 12.0mph /  19.3km/h 86% 0.04in /  1.02mm
21:00 59.3 °F /  15.2 °C 55.4 °F /  13 °C 29.68in /  1005hPa West 6.0mph /  9.7km/h 9.0mph /  14.5km/h 87% 0.04in /  1.02mm
21:05 59.2 °F /  15.1 °C 55.3 °F /  12.9 °C 29.68in /  1005hPa SW 2.0mph /  3.2km/h 11.0mph /  17.7km/h 87% 0.04in /  1.02mm
21:10 59.1 °F /  15.1 °C 55.2 °F /  12.9 °C 29.70in /  1005.6hPa SSW 6.0mph /  9.7km/h 11.0mph /  17.7km/h 87% 0.06in /  1.52mm
21:15 59.0 °F /  15 °C 55.4 °F /  13 °C 29.70in /  1005.6hPa SSW 5.0mph /  8km/h 12.0mph /  19.3km/h 88% 0.06in /  1.52mm
21:20 59.0 °F /  15 °C 55.4 °F /  13 °C 29.70in /  1005.6hPa SSW 6.0mph /  9.7km/h 12.0mph /  19.3km/h 88% 0.07in /  1.78mm
21:25 59.0 °F /  15 °C 55.4 °F /  13 °C 29.69in /  1005.3hPa SSW 6.0mph /  9.7km/h 12.0mph /  19.3km/h 88% 0.08in /  2.03mm
21:30 58.9 °F /  14.9 °C 55.4 °F /  13 °C 29.67in /  1004.6hPa SW 5.0mph /  8km/h 10.0mph /  16.1km/h 88% 0.08in /  2.03mm
21:35 58.7 °F /  14.8 °C 55.5 °F /  13.1 °C 29.67in /  1004.6hPa WSW 6.0mph /  9.7km/h 14.0mph /  22.5km/h 89% 0.09in /  2.29mm
21:40 58.6 °F /  14.8 °C 55.4 °F /  13 °C 29.67in /  1004.6hPa WSW 6.0mph /  9.7km/h 14.0mph /  22.5km/h 89% 0.09in /  2.29mm
21:45 58.5 °F /  14.7 °C 55.3 °F /  12.9 °C 29.68in /  1005hPa WSW 6.0mph /  9.7km/h 12.0mph /  19.3km/h 89% 0.09in /  2.29mm
21:50 58.5 °F /  14.7 °C 55.3 °F /  12.9 °C 29.68in /  1005hPa WSW 6.0mph /  9.7km/h 12.0mph /  19.3km/h 89% 0.09in /  2.29mm
21:55 58.5 °F /  14.7 °C 55.3 °F /  12.9 °C 29.67in /  1004.6hPa WSW 6.0mph /  9.7km/h 12.0mph /  19.3km/h 89% 0.09in /  2.29mm
22:00 58.4 °F /  14.7 °C 55.2 °F /  12.9 °C 29.68in /  1005hPa West 6.0mph /  9.7km/h 11.0mph /  17.7km/h 89% 0.09in /  2.29mm
22:05 58.3 °F /  14.6 °C 54.8 °F /  12.7 °C 29.70in /  1005.6hPa West 3.0mph /  4.8km/h 11.0mph /  17.7km/h 88% 0.09in /  2.29mm
22:10 58.3 °F /  14.6 °C 54.8 °F /  12.7 °C 29.71in /  1006hPa SW 5.0mph /  8km/h 11.0mph /  17.7km/h 88% 0.07in /  1.78mm
22:15 58.2 °F /  14.6 °C 54.3 °F /  12.4 °C 29.72in /  1006.3hPa SW 7.0mph /  11.3km/h 14.0mph /  22.5km/h 87% 0.07in /  1.78mm
22:20 58.0 °F /  14.4 °C 53.8 °F /  12.1 °C 29.73in /  1006.7hPa SW 6.0mph /  9.7km/h 18.0mph /  29km/h 86% 0.06in /  1.52mm
22:25 57.8 °F /  14.3 °C 53.3 °F /  11.8 °C 29.73in /  1006.7hPa SW 6.0mph /  9.7km/h 18.0mph /  29km/h 85% 0.05in /  1.27mm
22:30 57.6 °F /  14.2 °C 52.8 °F /  11.6 °C 29.73in /  1006.7hPa SW 7.0mph /  11.3km/h 14.0mph /  22.5km/h 84% 0.05in /  1.27mm
22:35 57.3 °F /  14.1 °C 52.2 °F /  11.2 °C 29.73in /  1006.7hPa SW 8.0mph /  12.9km/h 15.0mph /  24.1km/h 83% 0.03in /  0.76mm
22:40 57.3 °F /  14.1 °C 51.5 °F /  10.8 °C 29.73in /  1006.7hPa SW 8.0mph /  12.9km/h 16.0mph /  25.7km/h 81% 0.01in /  0.25mm
22:45 57.4 °F /  14.1 °C 51.3 °F /  10.7 °C 29.73in /  1006.7hPa SW 8.0mph /  12.9km/h 19.0mph /  30.6km/h 80% 0.00in /  0mm
22:50 57.4 °F /  14.1 °C 50.6 °F /  10.3 °C 29.73in /  1006.7hPa WSW 10.0mph /  16.1km/h 16.0mph /  25.7km/h 78% 0.00in /  0mm
22:55 57.3 °F /  14.1 °C 50.1 °F /  10.1 °C 29.74in /  1007hPa SW 8.0mph /  12.9km/h 16.0mph /  25.7km/h 77% 0.00in /  0mm
23:00 57.0 °F /  13.9 °C 49.5 °F /  9.7 °C 29.74in /  1007hPa SSW 6.0mph /  9.7km/h 22.0mph /  35.4km/h 76% 0.00in /  0mm
23:05 56.7 °F /  13.7 °C 49.2 °F /  9.6 °C 29.74in /  1007hPa WSW 6.0mph /  9.7km/h 16.0mph /  25.7km/h 76% 0.00in /  0mm
23:10 56.4 °F /  13.6 °C 48.9 °F /  9.4 °C 29.74in /  1007hPa SSW 17.0mph /  27.4km/h 20.0mph /  32.2km/h 76% 0.00in /  0mm
23:15 56.1 °F /  13.4 °C 48.6 °F /  9.2 °C 29.75in /  1007.3hPa South 8.0mph /  12.9km/h 21.0mph /  33.8km/h 76% 0.00in /  0mm
23:20 55.9 °F /  13.3 °C 48.4 °F /  9.1 °C 29.74in /  1007hPa SW 10.0mph /  16.1km/h 22.0mph /  35.4km/h 76% 0.00in /  0mm
23:25 55.7 °F /  13.2 °C 48.2 °F /  9 °C 29.74in /  1007hPa SW 10.0mph /  16.1km/h 24.0mph /  38.6km/h 76% 0.00in /  0mm
23:30 55.7 °F /  13.2 °C 47.9 °F /  8.8 °C 29.74in /  1007hPa SW 11.0mph /  17.7km/h 24.0mph /  38.6km/h 75% 0.00in /  0mm
23:35 55.5 °F /  13.1 °C 47.7 °F /  8.7 °C 29.74in /  1007hPa SW 11.0mph /  17.7km/h 23.0mph /  37km/h 75% 0.00in /  0mm
23:40 55.4 °F /  13 °C 47.2 °F /  8.4 °C 29.74in /  1007hPa SW 11.0mph /  17.7km/h 26.0mph /  41.8km/h 74% 0.00in /  0mm
23:45 55.2 °F /  12.9 °C 47.4 °F /  8.6 °C 29.74in /  1007hPa SW 10.0mph /  16.1km/h 26.0mph /  41.8km/h 75% 0.00in /  0mm
23:50 55.0 °F /  12.8 °C 47.2 °F /  8.4 °C 29.74in /  1007hPa SSW 7.0mph /  11.3km/h 28.0mph /  45.1km/h 75% 0.00in /  0mm
23:55 54.7 °F /  12.6 °C 46.9 °F /  8.3 °C 29.75in /  1007.3hPa SW 14.0mph /  22.5km/h 20.0mph /  32.2km/h 75% 0.00in /  0mm
Buffalo, New York, USA
Compliments of Weather Underground - 2.5 mb